Ventura, CA

2:54 PM PST on February 10, 2016 (GMT -0800)
Above Ventura College | | Change Station
CLOSE
Current Station
Personal Weather Station
Location: Ventura, CA
Elevation: 341 ft
Nearby Weather Stations

Elev 341 ft 34.28 °N, 119.23 °W | Updated 14 seconds ago

Clear
Clear
73.9 °F
Feels Like 77 °F
N
2.7
Wind Variable Wind from SW
Gusts 4.9 mph

Today
High -- | Low -- °F
--% Chance of Precip.
Yesterday
High -- | Low -- °F
Precip. -- in
Pressure 30.09 in
Visibility 10.0 miles
Clouds Clear
Heat Index 77 °F
Dew Point 43 °F
Humidity 33%
Rainfall 0.00 in
Snow Depth Not available.
6:47 AM 5:35 PM
Waxing Crescent, 7% visible
METAR KOXR 102251Z 27009KT 10SM CLR 21/12 A3009 RMK AO2 SLP187 T02060117
Pressure 30.09 in
Visibility 10.0 miles
Clouds Clear
Heat Index 77 °F
Dew Point 43 °F
Humidity 33%
Rainfall 0.00 in
Snow Depth Not available.
6:47 AM 5:35 PM
Waxing Crescent, 7% visible
METAR KOXR 102251Z 27009KT 10SM CLR 21/12 A3009 RMK AO2 SLP187 T02060117

10-Day Weather Forecast

Almanac

Astronomy

Feb. 10, 2016 Rise Set
Actual Time
Civil Twilight
Nautical Twilight
Astronomical Twilight
Moon
Length of Visible Light
Length of Day
Tomorrow will be .
, % of the Moon is Illuminated

Today's Extremes

State Highs State Lows

Community

WunderPhotos

Upload Photos

1,891,940 photos uploaded!

WunderBlog® & News

Nearby

Air Quality

  Air Quality AQ Index Pollutant
Not available.

Snow Depth

Station Depth Elevation

Earthquake Activity

City Distance Mag. Time & Date
Minimum magnitude displayed is 2.5.

Coastal Water Temperatures

Place Temperature

Stations

Nearby Weather Stations

Station Location Temp. Windchill Dew Point Humidity Wind Precip. Elev Updated Type
                   

Watches & Warnings

There are currently no watches in effect.